Les Eplatures Airport LSGC

Flugplatz Daten

Name: Les Eplatures Airport

Ident: LSGC

Lat: 47,08390045

Long: 6,792840004

Platzhöhe: 3368 ft

IataCode:

City: La Chaux-de-Fonds

Homepage: http://www.leseplaturesairport.ch

Metar

2021/08/02 08:20
LSGC 020820Z 20003KT 170V230 9999 FEW013 SCT018 13/10 Q1018

Taf

Gewünschte Webcam nicht vorhanden? Dann fügen Sie eine hinzu. Sie wird dann so schnell wie möglich freigeschaltet
Url: Title: